createdAt,value
2022-12-28T00:00:20.493Z,995.10
2022-12-28T00:01:20.455Z,995.01
2022-12-28T00:02:20.430Z,994.99
2022-12-28T00:03:20.704Z,994.96
2022-12-28T00:04:20.392Z,994.97
2022-12-28T00:05:20.394Z,994.92
2022-12-28T00:06:20.499Z,994.89
2022-12-28T00:07:20.545Z,994.92
2022-12-28T00:08:20.373Z,994.86
2022-12-28T00:09:20.310Z,994.90
2022-12-28T00:11:08.908Z,994.80
2022-12-28T00:11:28.351Z,994.73
2022-12-28T00:12:21.572Z,994.80
2022-12-28T00:13:20.291Z,994.73
2022-12-28T00:14:21.288Z,994.70
2022-12-28T00:15:20.509Z,994.64
2022-12-28T00:16:20.482Z,994.73
2022-12-28T00:17:20.300Z,994.66
2022-12-28T00:18:20.223Z,994.71
2022-12-28T00:19:20.192Z,994.60
2022-12-28T00:20:20.349Z,994.59
2022-12-28T00:21:20.399Z,994.62
2022-12-28T00:22:20.354Z,994.57
2022-12-28T00:23:20.147Z,994.56
2022-12-28T00:24:20.344Z,994.52
2022-12-28T00:25:20.225Z,994.55
2022-12-28T00:26:20.310Z,994.52
2022-12-28T00:27:20.097Z,994.52
2022-12-28T00:28:20.084Z,994.44
2022-12-28T00:29:20.318Z,994.49
2022-12-28T00:30:20.300Z,994.44
2022-12-28T00:31:20.076Z,994.40
2022-12-28T00:32:20.150Z,994.40
2022-12-28T00:33:21.838Z,994.34
2022-12-28T00:34:20.013Z,994.34
2022-12-28T00:35:20.158Z,994.31
2022-12-28T00:36:20.333Z,994.30
2022-12-28T00:37:20.129Z,994.32
2022-12-28T00:38:20.358Z,994.16
2022-12-28T00:39:20.095Z,994.18
2022-12-28T00:40:23.969Z,994.19
2022-12-28T00:41:20.152Z,994.20
2022-12-28T00:42:20.075Z,994.19
2022-12-28T00:43:20.060Z,994.14
2022-12-28T00:44:19.938Z,994.17
2022-12-28T00:45:23.158Z,994.12
2022-12-28T00:46:19.958Z,994.12
2022-12-28T00:47:19.980Z,994.10
2022-12-28T00:48:19.822Z,994.13
2022-12-28T00:49:20.011Z,994.03
2022-12-28T00:50:20.049Z,994.05
2022-12-28T00:51:20.492Z,993.97
2022-12-28T00:52:20.285Z,993.94
2022-12-28T00:53:19.935Z,993.95
2022-12-28T00:54:19.744Z,993.88
2022-12-28T00:55:19.763Z,993.80
2022-12-28T00:56:19.728Z,993.89
2022-12-28T00:57:19.718Z,993.77
2022-12-28T00:58:19.702Z,993.73
2022-12-28T00:59:19.703Z,993.73
2022-12-28T01:00:19.698Z,993.68
2022-12-28T01:01:19.742Z,993.65
2022-12-28T01:02:20.232Z,993.61
2022-12-28T01:03:19.673Z,993.66
2022-12-28T01:04:19.619Z,993.65
2022-12-28T01:05:19.642Z,993.66
2022-12-28T01:06:19.600Z,993.60
2022-12-28T01:07:19.574Z,993.53
2022-12-28T01:08:20.477Z,993.60
2022-12-28T01:09:19.558Z,993.54
2022-12-28T01:10:19.572Z,993.57
2022-12-28T01:11:19.541Z,993.61
2022-12-28T01:12:19.513Z,993.59
2022-12-28T01:13:19.522Z,993.53
2022-12-28T01:14:20.256Z,993.54
2022-12-28T01:15:19.529Z,993.54
2022-12-28T01:16:19.490Z,993.49
2022-12-28T01:17:19.477Z,993.48
2022-12-28T01:18:19.441Z,993.43
2022-12-28T01:19:19.441Z,993.38
2022-12-28T01:20:19.464Z,993.43
2022-12-28T01:21:19.413Z,993.37
2022-12-28T01:22:19.400Z,993.38
2022-12-28T01:23:19.391Z,993.40
2022-12-28T01:24:19.390Z,993.33
2022-12-28T01:25:19.399Z,993.28
2022-12-28T01:26:19.349Z,993.24
2022-12-28T01:27:19.340Z,993.26
2022-12-28T01:28:20.728Z,993.27
2022-12-28T01:29:19.305Z,993.29
2022-12-28T01:30:19.310Z,993.32
2022-12-28T01:31:19.385Z,993.24
2022-12-28T01:32:19.278Z,993.34
2022-12-28T01:33:19.246Z,993.23
2022-12-28T01:34:19.300Z,993.26
2022-12-28T01:35:19.249Z,993.30
2022-12-28T01:36:19.230Z,993.26
2022-12-28T01:37:19.209Z,993.29
2022-12-28T01:38:20.139Z,993.23
2022-12-28T01:39:19.789Z,993.19
2022-12-28T01:40:19.212Z,993.22
2022-12-28T01:41:19.154Z,993.17
2022-12-28T01:42:19.137Z,993.18
2022-12-28T01:43:29.870Z,993.12
2022-12-28T01:44:20.107Z,993.19
2022-12-28T01:45:19.133Z,993.06
2022-12-28T01:46:19.123Z,993.06
2022-12-28T01:47:19.110Z,993.09
2022-12-28T01:48:19.054Z,993.05
2022-12-28T01:49:19.047Z,993.01
2022-12-28T01:50:19.076Z,993.04
2022-12-28T01:51:19.043Z,992.96
2022-12-28T01:52:19.005Z,993.01
2022-12-28T01:53:18.994Z,992.95
2022-12-28T01:54:19.051Z,992.95
2022-12-28T01:55:19.015Z,993.01
2022-12-28T01:56:18.958Z,992.90
2022-12-28T01:57:19.018Z,992.94
2022-12-28T01:58:18.949Z,992.83
2022-12-28T01:59:18.938Z,992.92
2022-12-28T02:00:18.918Z,992.85
2022-12-28T02:01:19.111Z,992.76
2022-12-28T02:02:19.096Z,992.78
2022-12-28T02:03:18.914Z,992.76
2022-12-28T02:04:18.867Z,992.83
2022-12-28T02:05:18.843Z,992.79
2022-12-28T02:06:18.844Z,992.75
2022-12-28T02:07:23.023Z,992.77
2022-12-28T02:08:18.806Z,992.73
2022-12-28T02:09:18.830Z,992.72
2022-12-28T02:10:40.600Z,992.75
2022-12-28T02:11:20.312Z,992.74
2022-12-28T02:12:18.755Z,992.73
2022-12-28T02:13:18.742Z,992.70
2022-12-28T02:14:18.733Z,992.73
2022-12-28T02:15:23.084Z,992.67
2022-12-28T02:16:18.812Z,992.64
2022-12-28T02:17:18.693Z,992.61
2022-12-28T02:18:18.691Z,992.59
2022-12-28T02:19:18.687Z,992.63
2022-12-28T02:20:18.814Z,992.56
2022-12-28T02:21:18.683Z,992.58
2022-12-28T02:22:18.629Z,992.57
2022-12-28T02:23:18.627Z,992.52
2022-12-28T02:24:18.612Z,992.47
2022-12-28T02:25:18.595Z,992.42
2022-12-28T02:26:18.611Z,992.45
2022-12-28T02:27:18.565Z,992.44
2022-12-28T02:28:18.556Z,992.41
2022-12-28T02:29:18.541Z,992.35
2022-12-28T02:30:18.519Z,992.38
2022-12-28T02:31:18.593Z,992.30
2022-12-28T02:32:18.511Z,992.35
2022-12-28T02:33:18.488Z,992.27
2022-12-28T02:34:18.474Z,992.32
2022-12-28T02:35:18.467Z,992.38
2022-12-28T02:36:18.901Z,992.42
2022-12-28T02:37:18.441Z,992.42
2022-12-28T02:38:18.419Z,992.42
2022-12-28T02:39:18.416Z,992.39
2022-12-28T02:40:18.398Z,992.37
2022-12-28T02:41:18.486Z,992.36
2022-12-28T02:42:18.395Z,992.31
2022-12-28T02:43:18.362Z,992.22
2022-12-28T02:44:18.348Z,992.25
2022-12-28T02:45:18.329Z,992.13
2022-12-28T02:46:18.458Z,992.09
2022-12-28T02:47:18.306Z,992.15
2022-12-28T02:48:19.071Z,992.08
2022-12-28T02:49:18.288Z,992.11
2022-12-28T02:50:18.272Z,992.05
2022-12-28T02:51:18.349Z,992.08
2022-12-28T02:52:18.263Z,992.04
2022-12-28T02:53:18.242Z,992.13
2022-12-28T02:54:18.217Z,992.07
2022-12-28T02:55:18.762Z,992.02
2022-12-28T02:56:18.243Z,992.06
2022-12-28T02:57:18.325Z,992.03
2022-12-28T02:58:18.171Z,991.98
2022-12-28T02:59:18.160Z,991.92
2022-12-28T03:00:18.151Z,991.89
2022-12-28T03:01:18.235Z,991.85
2022-12-28T03:02:18.216Z,991.84
2022-12-28T03:03:18.137Z,991.82
2022-12-28T03:04:18.109Z,991.82
2022-12-28T03:05:18.088Z,991.77
2022-12-28T03:06:19.763Z,991.76
2022-12-28T03:07:18.069Z,991.72
2022-12-28T03:08:18.054Z,991.75
2022-12-28T03:09:18.021Z,991.71
2022-12-28T03:10:18.015Z,991.72
2022-12-28T03:11:18.168Z,991.64
2022-12-28T03:12:18.861Z,991.62
2022-12-28T03:13:18.203Z,991.66
2022-12-28T03:14:18.033Z,991.63
2022-12-28T03:15:17.960Z,991.69
2022-12-28T03:16:18.009Z,991.57
2022-12-28T03:17:18.014Z,991.61
2022-12-28T03:18:17.916Z,991.53
2022-12-28T03:19:18.050Z,991.53
2022-12-28T03:20:17.962Z,991.49
2022-12-28T03:21:18.108Z,991.46
2022-12-28T03:22:17.947Z,991.39
2022-12-28T03:23:17.932Z,991.33
2022-12-28T03:24:17.860Z,991.36
2022-12-28T03:25:17.877Z,991.38
2022-12-28T03:26:18.009Z,991.32
2022-12-28T03:27:17.912Z,991.24
2022-12-28T03:28:17.790Z,991.29
2022-12-28T03:29:17.774Z,991.26
2022-12-28T03:30:17.760Z,991.27
2022-12-28T03:31:17.825Z,991.27
2022-12-28T03:32:17.754Z,991.26
2022-12-28T03:33:17.721Z,991.23
2022-12-28T03:34:17.723Z,991.19
2022-12-28T03:35:17.699Z,991.15
2022-12-28T03:36:17.719Z,991.10
2022-12-28T03:37:17.730Z,991.14
2022-12-28T03:38:17.661Z,991.14
2022-12-28T03:39:17.639Z,991.11
2022-12-28T03:40:17.652Z,991.13
2022-12-28T03:41:17.970Z,991.11
2022-12-28T03:42:18.476Z,991.07
2022-12-28T03:43:18.369Z,991.03
2022-12-28T03:44:17.690Z,990.97
2022-12-28T03:45:45.101Z,991.03
2022-12-28T03:46:18.617Z,990.91
2022-12-28T03:47:17.671Z,990.93
2022-12-28T03:48:17.534Z,990.88
2022-12-28T03:49:17.518Z,990.89
2022-12-28T03:50:17.518Z,990.85
2022-12-28T03:51:18.173Z,990.80
2022-12-28T03:52:17.478Z,990.79
2022-12-28T03:53:17.482Z,990.77
2022-12-28T03:54:17.450Z,990.78
2022-12-28T03:55:17.525Z,990.71
2022-12-28T03:56:18.377Z,990.69
2022-12-28T03:57:17.496Z,990.77
2022-12-28T03:58:17.408Z,990.68
2022-12-28T03:59:17.448Z,990.77
2022-12-28T04:00:17.375Z,990.72
2022-12-28T04:01:17.489Z,990.71
2022-12-28T04:02:18.338Z,990.70
2022-12-28T04:03:17.380Z,990.68
2022-12-28T04:04:17.327Z,990.71
2022-12-28T04:05:17.308Z,990.68
2022-12-28T04:06:17.545Z,990.65
2022-12-28T04:07:17.318Z,990.63
2022-12-28T04:08:17.299Z,990.57
2022-12-28T04:09:17.382Z,990.59
2022-12-28T04:10:17.260Z,990.58
2022-12-28T04:11:17.330Z,990.66
2022-12-28T04:12:17.503Z,990.56
2022-12-28T04:13:17.221Z,990.51
2022-12-28T04:14:17.197Z,990.49
2022-12-28T04:15:17.228Z,990.46
2022-12-28T04:16:17.321Z,990.48
2022-12-28T04:17:17.417Z,990.42
2022-12-28T04:18:17.267Z,990.49
2022-12-28T04:19:17.289Z,990.53
2022-12-28T04:20:17.278Z,990.51
2022-12-28T04:21:17.285Z,990.50
2022-12-28T04:22:17.102Z,990.47
2022-12-28T04:23:17.095Z,990.41
2022-12-28T04:24:17.072Z,990.38
2022-12-28T04:25:17.056Z,990.38
2022-12-28T04:26:17.079Z,990.33
2022-12-28T04:27:17.033Z,990.26
2022-12-28T04:28:17.025Z,990.28
2022-12-28T04:29:17.119Z,990.36
2022-12-28T04:30:16.994Z,990.29
2022-12-28T04:31:17.126Z,990.31
2022-12-28T04:32:16.983Z,990.31
2022-12-28T04:33:16.948Z,990.25
2022-12-28T04:34:16.935Z,990.22
2022-12-28T04:35:16.959Z,990.19
2022-12-28T04:36:16.944Z,990.18
2022-12-28T04:37:16.919Z,990.13
2022-12-28T04:38:16.917Z,990.12
2022-12-28T04:39:16.893Z,990.10
2022-12-28T04:40:16.868Z,990.05
2022-12-28T04:41:16.900Z,990.06
2022-12-28T04:42:16.853Z,990.05
2022-12-28T04:43:16.834Z,990.08
2022-12-28T04:44:16.835Z,990.02
2022-12-28T04:45:21.746Z,989.96
2022-12-28T04:46:18.003Z,989.93
2022-12-28T04:47:16.761Z,989.97
2022-12-28T04:48:16.780Z,989.90
2022-12-28T04:49:16.748Z,989.81
2022-12-28T04:50:16.757Z,989.72
2022-12-28T04:51:16.751Z,989.73
2022-12-28T04:52:16.723Z,989.76
2022-12-28T04:53:16.782Z,989.74
2022-12-28T04:54:16.704Z,989.69
2022-12-28T04:55:31.544Z,989.72
2022-12-28T04:56:18.553Z,989.71
2022-12-28T04:57:16.645Z,989.69
2022-12-28T04:58:16.655Z,989.65
2022-12-28T04:59:17.491Z,989.64
2022-12-28T05:00:16.701Z,989.62
2022-12-28T05:01:16.712Z,989.61
2022-12-28T05:02:16.712Z,989.59
2022-12-28T05:03:16.570Z,989.64
2022-12-28T05:04:16.570Z,989.64
2022-12-28T05:05:16.554Z,989.56
2022-12-28T05:06:16.568Z,989.58
2022-12-28T05:07:16.535Z,989.64
2022-12-28T05:08:16.511Z,989.64
2022-12-28T05:09:16.497Z,989.61
2022-12-28T05:10:16.481Z,989.59
2022-12-28T05:11:16.501Z,989.65
2022-12-28T05:12:16.510Z,989.59
2022-12-28T05:13:16.439Z,989.61
2022-12-28T05:14:16.449Z,989.63
2022-12-28T05:15:16.421Z,989.58
2022-12-28T05:16:16.506Z,989.57
2022-12-28T05:17:16.439Z,989.61
2022-12-28T05:18:16.377Z,989.61
2022-12-28T05:19:16.372Z,989.67
2022-12-28T05:20:16.382Z,989.66
2022-12-28T05:21:16.360Z,989.63
2022-12-28T05:22:16.414Z,989.70
2022-12-28T05:23:16.309Z,989.62
2022-12-28T05:24:16.302Z,989.65
2022-12-28T05:25:16.292Z,989.64
2022-12-28T05:26:16.352Z,989.69
2022-12-28T05:27:16.304Z,989.59
2022-12-28T05:28:16.318Z,989.59
2022-12-28T05:29:17.157Z,989.56
2022-12-28T05:30:16.287Z,989.52
2022-12-28T05:31:16.266Z,989.63
2022-12-28T05:32:16.224Z,989.62
2022-12-28T05:33:16.206Z,989.56
2022-12-28T05:34:16.168Z,989.57
2022-12-28T05:35:16.148Z,989.53
2022-12-28T05:36:16.157Z,989.55
2022-12-28T05:37:21.825Z,989.52
2022-12-28T05:38:17.398Z,989.49
2022-12-28T05:39:16.144Z,989.48
2022-12-28T05:40:16.105Z,989.47
2022-12-28T05:41:16.098Z,989.53
2022-12-28T05:42:16.113Z,989.49
2022-12-28T05:43:16.083Z,989.47
2022-12-28T05:44:16.076Z,989.53
2022-12-28T05:45:16.863Z,989.50
2022-12-28T05:46:16.063Z,989.43
2022-12-28T05:47:16.033Z,989.46
2022-12-28T05:48:15.987Z,989.36
2022-12-28T05:49:15.985Z,989.46
2022-12-28T05:50:15.973Z,989.49
2022-12-28T05:51:15.971Z,989.44
2022-12-28T05:52:15.980Z,989.42
2022-12-28T05:53:15.937Z,989.41
2022-12-28T05:54:15.910Z,989.51
2022-12-28T05:55:15.947Z,989.42
2022-12-28T05:56:15.944Z,989.43
2022-12-28T05:57:15.932Z,989.45
2022-12-28T05:58:15.867Z,989.38
2022-12-28T05:59:15.843Z,989.29
2022-12-28T06:00:15.846Z,989.31
2022-12-28T06:01:15.863Z,989.33
2022-12-28T06:02:19.181Z,989.18
2022-12-28T06:03:16.898Z,989.19
2022-12-28T06:04:15.801Z,989.17
2022-12-28T06:05:15.776Z,989.18
2022-12-28T06:06:15.764Z,989.10
2022-12-28T06:07:15.780Z,989.15
2022-12-28T06:08:20.972Z,989.08
2022-12-28T06:09:16.734Z,989.12
2022-12-28T06:10:15.706Z,989.18
2022-12-28T06:11:15.698Z,989.17
2022-12-28T06:12:15.708Z,989.15
2022-12-28T06:13:15.671Z,989.08
2022-12-28T06:14:15.657Z,989.09
2022-12-28T06:15:15.641Z,989.08
2022-12-28T06:16:16.024Z,989.06
2022-12-28T06:17:15.672Z,989.02
2022-12-28T06:18:15.624Z,989.03
2022-12-28T06:19:15.664Z,989.03
2022-12-28T06:20:15.580Z,989.04
2022-12-28T06:21:15.573Z,989.00
2022-12-28T06:22:15.591Z,988.99
2022-12-28T06:23:15.537Z,989.04
2022-12-28T06:24:15.606Z,989.06
2022-12-28T06:25:16.207Z,988.99
2022-12-28T06:26:15.508Z,989.04
2022-12-28T06:27:15.532Z,989.05
2022-12-28T06:28:15.477Z,989.14
2022-12-28T06:29:15.470Z,989.05
2022-12-28T06:30:15.440Z,989.06
2022-12-28T06:31:15.548Z,989.05
2022-12-28T06:32:16.140Z,989.06
2022-12-28T06:33:15.490Z,989.06
2022-12-28T06:34:15.420Z,989.09
2022-12-28T06:35:15.412Z,989.00
2022-12-28T06:36:19.939Z,989.06
2022-12-28T06:37:16.489Z,988.97
2022-12-28T06:38:15.389Z,988.99
2022-12-28T06:39:15.338Z,988.92
2022-12-28T06:40:15.332Z,988.89
2022-12-28T06:41:15.441Z,988.95
2022-12-28T06:42:15.328Z,988.90
2022-12-28T06:43:15.284Z,988.85
2022-12-28T06:44:15.276Z,988.93
2022-12-28T06:45:15.279Z,988.92
2022-12-28T06:46:15.300Z,988.92
2022-12-28T06:47:15.279Z,988.83
2022-12-28T06:48:15.222Z,988.96
2022-12-28T06:49:15.203Z,988.92
2022-12-28T06:50:15.196Z,988.86
2022-12-28T06:51:15.256Z,988.88
2022-12-28T06:52:15.190Z,988.86
2022-12-28T06:53:15.157Z,988.85
2022-12-28T06:54:15.136Z,988.81
2022-12-28T06:55:15.115Z,988.76
2022-12-28T06:56:15.108Z,988.83
2022-12-28T06:57:15.126Z,988.76
2022-12-28T06:58:15.090Z,988.74
2022-12-28T06:59:15.025Z,988.65
2022-12-28T07:00:15.125Z,988.75
2022-12-28T07:01:16.117Z,988.67
2022-12-28T07:02:15.534Z,988.67
2022-12-28T07:03:15.002Z,988.70
2022-12-28T07:04:14.965Z,988.75
2022-12-28T07:05:14.951Z,988.72
2022-12-28T07:06:14.960Z,988.70
2022-12-28T07:07:14.956Z,988.70
2022-12-28T07:08:14.905Z,988.65
2022-12-28T07:09:14.900Z,988.68
2022-12-28T07:10:14.876Z,988.69
2022-12-28T07:11:14.881Z,988.71
2022-12-28T07:12:14.902Z,988.64
2022-12-28T07:13:15.620Z,988.64
2022-12-28T07:14:14.829Z,988.69
2022-12-28T07:15:14.833Z,988.62
2022-12-28T07:16:14.876Z,988.65
2022-12-28T07:17:14.825Z,988.65
2022-12-28T07:18:14.803Z,988.62
2022-12-28T07:19:14.796Z,988.66
2022-12-28T07:20:14.847Z,988.65
2022-12-28T07:21:14.744Z,988.65
2022-12-28T07:22:14.867Z,988.63
2022-12-28T07:23:14.718Z,988.64
2022-12-28T07:24:14.742Z,988.70
2022-12-28T07:25:14.690Z,988.70
2022-12-28T07:26:14.674Z,988.78
2022-12-28T07:27:14.691Z,988.69
2022-12-28T07:28:14.662Z,988.67
2022-12-28T07:29:14.699Z,988.65
2022-12-28T07:30:14.612Z,988.53
2022-12-28T07:31:14.675Z,988.63
2022-12-28T07:32:14.631Z,988.53
2022-12-28T07:33:14.610Z,988.56
2022-12-28T07:34:14.742Z,988.47
2022-12-28T07:35:14.621Z,988.53
2022-12-28T07:36:14.676Z,988.56
2022-12-28T07:37:14.592Z,988.51
2022-12-28T07:38:20.975Z,988.54
2022-12-28T07:39:15.514Z,988.55
2022-12-28T07:40:14.502Z,988.54
2022-12-28T07:41:14.689Z,988.54
2022-12-28T07:42:14.667Z,988.55
2022-12-28T07:43:14.700Z,988.59
2022-12-28T07:44:14.437Z,988.57
2022-12-28T07:45:14.472Z,988.57
2022-12-28T07:46:14.479Z,988.48
2022-12-28T07:47:14.390Z,988.51
2022-12-28T07:48:14.438Z,988.48
2022-12-28T07:49:14.409Z,988.49
2022-12-28T07:50:14.356Z,988.52
2022-12-28T07:51:14.365Z,988.58
2022-12-28T07:52:14.338Z,988.56
2022-12-28T07:53:20.232Z,988.57
2022-12-28T07:54:15.336Z,988.52
2022-12-28T07:55:14.286Z,988.49
2022-12-28T07:56:14.303Z,988.45
2022-12-28T07:57:14.299Z,988.52
2022-12-28T07:58:14.288Z,988.53
2022-12-28T07:59:14.247Z,988.54
2022-12-28T08:00:14.238Z,988.53
2022-12-28T08:01:14.390Z,988.48
2022-12-28T08:02:14.280Z,988.43
2022-12-28T08:03:14.295Z,988.49
2022-12-28T08:04:14.198Z,988.50
2022-12-28T08:05:14.162Z,988.51
2022-12-28T08:06:14.179Z,988.51
2022-12-28T08:07:14.132Z,988.55
2022-12-28T08:08:14.158Z,988.56
2022-12-28T08:09:14.256Z,988.47
2022-12-28T08:10:14.101Z,988.52
2022-12-28T08:11:14.084Z,988.55
2022-12-28T08:12:14.077Z,988.54
2022-12-28T08:13:14.125Z,988.51
2022-12-28T08:14:14.082Z,988.42
2022-12-28T08:15:14.035Z,988.49
2022-12-28T08:16:14.135Z,988.45
2022-12-28T08:17:19.095Z,988.44
2022-12-28T08:18:15.273Z,988.41
2022-12-28T08:19:14.215Z,988.49
2022-12-28T08:20:14.092Z,988.43
2022-12-28T08:21:13.967Z,988.50
2022-12-28T08:22:14.016Z,988.44
2022-12-28T08:23:13.964Z,988.47
2022-12-28T08:24:13.915Z,988.50
2022-12-28T08:25:13.913Z,988.55
2022-12-28T08:26:13.896Z,988.55
2022-12-28T08:27:13.880Z,988.49
2022-12-28T08:28:13.901Z,988.47
2022-12-28T08:29:13.860Z,988.56
2022-12-28T08:30:13.900Z,988.59
2022-12-28T08:31:13.846Z,988.59
2022-12-28T08:32:13.830Z,988.60
2022-12-28T08:33:13.830Z,988.54
2022-12-28T08:34:13.836Z,988.61
2022-12-28T08:35:13.863Z,988.55
2022-12-28T08:36:13.754Z,988.57
2022-12-28T08:37:13.751Z,988.61
2022-12-28T08:38:13.762Z,988.64
2022-12-28T08:39:13.736Z,988.56
2022-12-28T08:40:13.710Z,988.53
2022-12-28T08:41:13.720Z,988.57
2022-12-28T08:42:13.745Z,988.53
2022-12-28T08:43:13.706Z,988.48
2022-12-28T08:44:13.663Z,988.52
2022-12-28T08:45:13.640Z,988.46
2022-12-28T08:46:13.721Z,988.46
2022-12-28T08:47:13.657Z,988.52
2022-12-28T08:48:13.636Z,988.50
2022-12-28T08:49:13.584Z,988.49
2022-12-28T08:50:16.902Z,988.50
2022-12-28T08:51:14.568Z,988.51
2022-12-28T08:52:13.567Z,988.45
2022-12-28T08:53:13.579Z,988.42
2022-12-28T08:54:13.528Z,988.56
2022-12-28T08:55:13.515Z,988.51
2022-12-28T08:56:13.504Z,988.47
2022-12-28T08:57:13.490Z,988.45
2022-12-28T08:58:13.512Z,988.48
2022-12-28T08:59:13.459Z,988.50
2022-12-28T09:00:13.452Z,988.48
2022-12-28T09:01:13.560Z,988.52
2022-12-28T09:02:13.487Z,988.51
2022-12-28T09:03:13.523Z,988.52
2022-12-28T09:04:13.410Z,988.52
2022-12-28T09:05:13.382Z,988.51
2022-12-28T09:06:13.667Z,988.47
2022-12-28T09:07:13.377Z,988.55
2022-12-28T09:08:13.386Z,988.52
2022-12-28T09:09:13.332Z,988.53
2022-12-28T09:10:13.370Z,988.52
2022-12-28T09:11:13.311Z,988.61
2022-12-28T09:12:13.313Z,988.52
2022-12-28T09:13:13.299Z,988.53
2022-12-28T09:14:20.357Z,988.49
2022-12-28T09:15:14.274Z,988.50
2022-12-28T09:16:13.302Z,988.50
2022-12-28T09:17:13.222Z,988.55
2022-12-28T09:18:13.249Z,988.60
2022-12-28T09:19:13.205Z,988.57
2022-12-28T09:20:13.235Z,988.60
2022-12-28T09:21:13.177Z,988.57
2022-12-28T09:22:13.992Z,988.62
2022-12-28T09:23:13.168Z,988.68
2022-12-28T09:24:13.169Z,988.61
2022-12-28T09:25:13.119Z,988.62
2022-12-28T09:26:13.142Z,988.63
2022-12-28T09:27:13.608Z,988.63
2022-12-28T09:28:13.143Z,988.60
2022-12-28T09:29:13.088Z,988.69
2022-12-28T09:30:13.127Z,988.68
2022-12-28T09:31:13.148Z,988.69
2022-12-28T09:32:13.067Z,988.70
2022-12-28T09:33:13.066Z,988.71
2022-12-28T09:35:13.990Z,988.74
2022-12-28T09:36:12.992Z,988.71
2022-12-28T09:37:12.981Z,988.71
2022-12-28T09:38:13.107Z,988.69
2022-12-28T09:39:13.045Z,988.66
2022-12-28T09:40:13.125Z,988.61
2022-12-28T09:41:12.924Z,988.64
2022-12-28T09:42:12.907Z,988.60
2022-12-28T09:43:12.916Z,988.56
2022-12-28T09:44:12.882Z,988.60
2022-12-28T09:45:13.051Z,988.63
2022-12-28T09:46:12.883Z,988.62
2022-12-28T09:47:12.846Z,988.55
2022-12-28T09:48:12.861Z,988.57
2022-12-28T09:49:12.813Z,988.64
2022-12-28T09:50:12.806Z,988.53
2022-12-28T09:51:12.792Z,988.56
2022-12-28T09:52:12.801Z,988.57
2022-12-28T09:53:12.813Z,988.58
2022-12-28T09:54:12.747Z,988.57
2022-12-28T09:55:12.748Z,988.54
2022-12-28T09:56:12.730Z,988.62
2022-12-28T09:57:12.710Z,988.53
2022-12-28T09:58:12.728Z,988.51
2022-12-28T09:59:12.684Z,988.53
2022-12-28T10:00:12.676Z,988.52
2022-12-28T10:01:12.783Z,988.49
2022-12-28T10:02:12.758Z,988.42
2022-12-28T10:03:12.708Z,988.51
2022-12-28T10:04:12.626Z,988.47
2022-12-28T10:05:12.616Z,988.47
2022-12-28T10:06:12.592Z,988.51
2022-12-28T10:07:12.586Z,988.50
2022-12-28T10:08:12.607Z,988.45
2022-12-28T10:09:12.553Z,988.36
2022-12-28T10:10:12.646Z,988.36
2022-12-28T10:11:12.541Z,988.39
2022-12-28T10:12:12.526Z,988.41
2022-12-28T10:13:37.056Z,988.41
2022-12-28T10:14:13.566Z,988.33
2022-12-28T10:15:12.869Z,988.41
2022-12-28T10:16:12.730Z,988.43
2022-12-28T10:17:12.452Z,988.38
2022-12-28T10:18:12.541Z,988.39
2022-12-28T10:19:12.496Z,988.42
2022-12-28T10:20:12.417Z,988.40
2022-12-28T10:21:12.420Z,988.33
2022-12-28T10:22:12.405Z,988.36
2022-12-28T10:23:13.263Z,988.36
2022-12-28T10:25:13.362Z,988.39
2022-12-28T10:26:12.338Z,988.32
2022-12-28T10:27:12.329Z,988.31
2022-12-28T10:28:12.652Z,988.27
2022-12-28T10:29:12.503Z,988.25
2022-12-28T10:30:12.286Z,988.26
2022-12-28T10:31:12.750Z,988.36
2022-12-28T10:32:12.256Z,988.23
2022-12-28T10:33:13.933Z,988.21
2022-12-28T10:34:12.484Z,988.25
2022-12-28T10:35:12.792Z,988.22
2022-12-28T10:36:12.202Z,988.28
2022-12-28T10:37:14.524Z,988.18
2022-12-28T10:38:12.215Z,988.21
2022-12-28T10:39:12.272Z,988.16
2022-12-28T10:40:12.156Z,988.13
2022-12-28T10:41:12.146Z,988.18
2022-12-28T10:42:12.143Z,988.13
2022-12-28T10:43:12.157Z,988.13
2022-12-28T10:44:38.255Z,988.12
2022-12-28T10:45:13.125Z,988.13
2022-12-28T10:46:12.107Z,988.08
2022-12-28T10:47:12.083Z,988.13
2022-12-28T10:48:12.053Z,988.02
2022-12-28T10:49:15.524Z,988.09
2022-12-28T10:50:36.658Z,988.06
2022-12-28T10:51:13.019Z,988.05
2022-12-28T10:52:12.013Z,988.03
2022-12-28T10:53:12.140Z,988.00
2022-12-28T10:54:12.002Z,988.01
2022-12-28T10:55:11.961Z,988.00
2022-12-28T10:56:11.954Z,987.98
2022-12-28T10:57:12.123Z,988.00
2022-12-28T10:58:29.589Z,987.94
2022-12-28T10:59:12.945Z,988.02
2022-12-28T11:00:11.901Z,987.91
2022-12-28T11:01:11.975Z,987.99
2022-12-28T11:02:12.058Z,987.94
2022-12-28T11:03:12.830Z,987.88
2022-12-28T11:04:11.892Z,987.92
2022-12-28T11:05:11.841Z,987.94
2022-12-28T11:06:11.828Z,987.85
2022-12-28T11:07:11.801Z,987.90
2022-12-28T11:08:11.801Z,987.88
2022-12-28T11:09:12.473Z,987.84
2022-12-28T11:10:11.785Z,987.86
2022-12-28T11:11:11.763Z,987.79
2022-12-28T11:12:11.751Z,987.84
2022-12-28T11:13:13.829Z,987.81
2022-12-28T11:14:12.741Z,987.79
2022-12-28T11:15:11.711Z,987.74
2022-12-28T11:16:11.777Z,987.74
2022-12-28T11:17:11.686Z,987.73
2022-12-28T11:18:11.653Z,987.72
2022-12-28T11:19:11.687Z,987.70
2022-12-28T11:20:11.640Z,987.75
2022-12-28T11:21:11.649Z,987.75
2022-12-28T11:22:11.607Z,987.75
2022-12-28T11:23:12.463Z,987.81
2022-12-28T11:24:11.614Z,987.76
2022-12-28T11:25:11.586Z,987.72
2022-12-28T11:26:11.566Z,987.63
2022-12-28T11:27:11.890Z,987.69
2022-12-28T11:28:11.555Z,987.69
2022-12-28T11:29:11.559Z,987.70
2022-12-28T11:30:17.186Z,987.73
2022-12-28T11:31:12.553Z,987.71
2022-12-28T11:32:11.563Z,987.66
2022-12-28T11:33:11.504Z,987.68
2022-12-28T11:34:11.766Z,987.63
2022-12-28T11:35:11.671Z,987.74
2022-12-28T11:36:11.710Z,987.68
2022-12-28T11:37:11.497Z,987.60
2022-12-28T11:38:11.401Z,987.63
2022-12-28T11:39:11.447Z,987.58
2022-12-28T11:40:12.178Z,987.62
2022-12-28T11:41:12.018Z,987.60
2022-12-28T11:42:37.863Z,987.63
2022-12-28T11:43:12.341Z,987.59
2022-12-28T11:44:11.653Z,987.62
2022-12-28T11:45:11.310Z,987.52
2022-12-28T11:46:11.380Z,987.55
2022-12-28T11:47:11.850Z,987.58
2022-12-28T11:48:11.273Z,987.48
2022-12-28T11:49:11.460Z,987.48
2022-12-28T11:50:11.239Z,987.45
2022-12-28T11:51:11.239Z,987.48
2022-12-28T11:52:11.250Z,987.45
2022-12-28T11:53:14.023Z,987.50
2022-12-28T11:54:11.218Z,987.50
2022-12-28T11:55:12.098Z,987.37
2022-12-28T11:56:11.199Z,987.37
2022-12-28T11:57:11.177Z,987.42
2022-12-28T11:58:11.277Z,987.38
2022-12-28T11:59:11.293Z,987.38
2022-12-28T12:00:12.195Z,987.37
2022-12-28T12:01:11.165Z,987.36
2022-12-28T12:02:11.147Z,987.44
2022-12-28T12:03:11.591Z,987.35
2022-12-28T12:04:11.096Z,987.29
2022-12-28T12:05:11.046Z,987.37
2022-12-28T12:06:11.038Z,987.34
2022-12-28T12:07:11.030Z,987.24
2022-12-28T12:08:11.007Z,987.31
2022-12-28T12:09:11.047Z,987.30
2022-12-28T12:10:10.997Z,987.30
2022-12-28T12:11:11.361Z,987.34
2022-12-28T12:12:14.464Z,987.35
2022-12-28T12:13:12.043Z,987.32
2022-12-28T12:14:10.968Z,987.28
2022-12-28T12:15:10.923Z,987.35
2022-12-28T12:16:10.896Z,987.30
2022-12-28T12:17:11.747Z,987.33
2022-12-28T12:18:11.428Z,987.33
2022-12-28T12:19:11.053Z,987.34
2022-12-28T12:20:11.428Z,987.29
2022-12-28T12:21:15.724Z,987.36
2022-12-28T12:22:11.842Z,987.31
2022-12-28T12:23:10.875Z,987.24
2022-12-28T12:24:10.838Z,987.30
2022-12-28T12:25:11.549Z,987.24
2022-12-28T12:26:10.780Z,987.15
2022-12-28T12:27:13.528Z,987.23
2022-12-28T12:28:10.751Z,987.22
2022-12-28T12:29:10.765Z,987.20
2022-12-28T12:30:11.298Z,987.19